sensor_id;sensor_type;location;lat;lon;timestamp;P1;durP1;ratioP1;P2;durP2;ratioP2
13483;SDS011;6814;57.786;12.080;2023-07-29T00:02:16;8.60;;;5.00;;
13483;SDS011;6814;57.786;12.080;2023-07-29T00:04:43;5.87;;;5.23;;
13483;SDS011;6814;57.786;12.080;2023-07-29T00:07:09;6.20;;;4.80;;
13483;SDS011;6814;57.786;12.080;2023-07-29T00:09:36;5.90;;;5.33;;
13483;SDS011;6814;57.786;12.080;2023-07-29T00:12:03;7.13;;;5.13;;
13483;SDS011;6814;57.786;12.080;2023-07-29T00:14:31;5.37;;;4.87;;
13483;SDS011;6814;57.786;12.080;2023-07-29T00:16:58;8.83;;;5.27;;
13483;SDS011;6814;57.786;12.080;2023-07-29T00:19:24;5.87;;;5.27;;
13483;SDS011;6814;57.786;12.080;2023-07-29T00:21:51;5.80;;;5.23;;
13483;SDS011;6814;57.786;12.080;2023-07-29T00:24:17;6.90;;;5.27;;
13483;SDS011;6814;57.786;12.080;2023-07-29T00:26:44;7.30;;;5.40;;
13483;SDS011;6814;57.786;12.080;2023-07-29T00:29:10;5.93;;;5.33;;
13483;SDS011;6814;57.786;12.080;2023-07-29T00:31:38;6.20;;;5.30;;
13483;SDS011;6814;57.786;12.080;2023-07-29T00:34:05;5.47;;;4.97;;
13483;SDS011;6814;57.786;12.080;2023-07-29T00:36:31;7.63;;;5.30;;
13483;SDS011;6814;57.786;12.080;2023-07-29T00:38:57;6.37;;;5.63;;
13483;SDS011;6814;57.786;12.080;2023-07-29T00:41:24;8.67;;;5.37;;
13483;SDS011;6814;57.786;12.080;2023-07-29T00:43:51;8.67;;;5.30;;
13483;SDS011;6814;57.786;12.080;2023-07-29T00:46:17;8.37;;;5.23;;
13483;SDS011;6814;57.786;12.080;2023-07-29T00:48:46;7.13;;;4.93;;
13483;SDS011;6814;57.786;12.080;2023-07-29T00:51:12;6.20;;;5.37;;
13483;SDS011;6814;57.786;12.080;2023-07-29T00:53:39;7.53;;;5.30;;
13483;SDS011;6814;57.786;12.080;2023-07-29T00:56:05;8.47;;;5.10;;
13483;SDS011;6814;57.786;12.080;2023-07-29T00:58:32;8.23;;;5.83;;
13483;SDS011;6814;57.786;12.080;2023-07-29T01:00:58;7.87;;;5.23;;
13483;SDS011;6814;57.786;12.080;2023-07-29T01:03:25;8.43;;;5.67;;
13483;SDS011;6814;57.786;12.080;2023-07-29T01:05:56;7.50;;;5.27;;
13483;SDS011;6814;57.786;12.080;2023-07-29T01:08:27;10.00;;;5.53;;
13483;SDS011;6814;57.786;12.080;2023-07-29T01:10:58;8.43;;;5.13;;
13483;SDS011;6814;57.786;12.080;2023-07-29T01:13:29;5.70;;;4.60;;
13483;SDS011;6814;57.786;12.080;2023-07-29T01:15:58;6.13;;;4.90;;
13483;SDS011;6814;57.786;12.080;2023-07-29T01:18:28;7.43;;;5.10;;
13483;SDS011;6814;57.786;12.080;2023-07-29T01:20:58;6.63;;;4.60;;
13483;SDS011;6814;57.786;12.080;2023-07-29T01:23:26;6.13;;;5.13;;
13483;SDS011;6814;57.786;12.080;2023-07-29T01:25:54;6.47;;;5.10;;
13483;SDS011;6814;57.786;12.080;2023-07-29T01:28:21;8.30;;;5.00;;
13483;SDS011;6814;57.786;12.080;2023-07-29T01:30:48;7.03;;;5.17;;
13483;SDS011;6814;57.786;12.080;2023-07-29T01:33:16;5.77;;;4.83;;
13483;SDS011;6814;57.786;12.080;2023-07-29T01:35:45;6.20;;;4.80;;
13483;SDS011;6814;57.786;12.080;2023-07-29T01:38:13;5.80;;;5.27;;
13483;SDS011;6814;57.786;12.080;2023-07-29T01:40:42;7.13;;;5.33;;
13483;SDS011;6814;57.786;12.080;2023-07-29T01:43:09;5.93;;;5.10;;
13483;SDS011;6814;57.786;12.080;2023-07-29T01:45:35;6.30;;;5.37;;
13483;SDS011;6814;57.786;12.080;2023-07-29T01:48:03;9.10;;;5.03;;
13483;SDS011;6814;57.786;12.080;2023-07-29T01:50:30;9.40;;;5.90;;
13483;SDS011;6814;57.786;12.080;2023-07-29T01:52:57;6.03;;;5.40;;
13483;SDS011;6814;57.786;12.080;2023-07-29T01:55:23;7.83;;;5.00;;
13483;SDS011;6814;57.786;12.080;2023-07-29T01:57:51;6.83;;;5.13;;
13483;SDS011;6814;57.786;12.080;2023-07-29T02:00:18;7.17;;;5.23;;
13483;SDS011;6814;57.786;12.080;2023-07-29T02:02:44;6.80;;;4.43;;
13483;SDS011;6814;57.786;12.080;2023-07-29T02:05:11;9.10;;;5.03;;
13483;SDS011;6814;57.786;12.080;2023-07-29T02:07:37;5.63;;;5.10;;
13483;SDS011;6814;57.786;12.080;2023-07-29T02:10:04;7.80;;;4.77;;
13483;SDS011;6814;57.786;12.080;2023-07-29T02:12:30;6.30;;;5.37;;
13483;SDS011;6814;57.786;12.080;2023-07-29T02:14:58;5.80;;;4.67;;
13483;SDS011;6814;57.786;12.080;2023-07-29T02:17:25;7.30;;;5.07;;
13483;SDS011;6814;57.786;12.080;2023-07-29T02:19:52;7.10;;;4.97;;
13483;SDS011;6814;57.786;12.080;2023-07-29T02:22:18;9.17;;;5.37;;
13483;SDS011;6814;57.786;12.080;2023-07-29T02:24:44;10.63;;;5.73;;
13483;SDS011;6814;57.786;12.080;2023-07-29T02:27:10;5.47;;;4.97;;
13483;SDS011;6814;57.786;12.080;2023-07-29T02:29:36;8.20;;;4.87;;
13483;SDS011;6814;57.786;12.080;2023-07-29T02:32:04;6.23;;;5.07;;
13483;SDS011;6814;57.786;12.080;2023-07-29T02:34:31;6.80;;;5.30;;
13483;SDS011;6814;57.786;12.080;2023-07-29T02:36:57;7.57;;;5.30;;
13483;SDS011;6814;57.786;12.080;2023-07-29T02:39:24;11.10;;;5.20;;
13483;SDS011;6814;57.786;12.080;2023-07-29T02:41:51;7.20;;;5.43;;
13483;SDS011;6814;57.786;12.080;2023-07-29T02:44:17;11.23;;;5.40;;
13483;SDS011;6814;57.786;12.080;2023-07-29T02:46:44;6.30;;;5.33;;
13483;SDS011;6814;57.786;12.080;2023-07-29T02:49:12;5.60;;;5.10;;
13483;SDS011;6814;57.786;12.080;2023-07-29T02:51:38;6.37;;;4.80;;
13483;SDS011;6814;57.786;12.080;2023-07-29T02:54:05;6.73;;;5.30;;
13483;SDS011;6814;57.786;12.080;2023-07-29T02:56:31;5.63;;;4.67;;
13483;SDS011;6814;57.786;12.080;2023-07-29T02:58:58;5.20;;;4.70;;
13483;SDS011;6814;57.786;12.080;2023-07-29T03:01:25;7.20;;;5.13;;
13483;SDS011;6814;57.786;12.080;2023-07-29T03:03:51;6.47;;;5.03;;
13483;SDS011;6814;57.786;12.080;2023-07-29T03:06:19;5.83;;;5.23;;
13483;SDS011;6814;57.786;12.080;2023-07-29T03:08:45;7.93;;;5.03;;
13483;SDS011;6814;57.786;12.080;2023-07-29T03:11:12;5.97;;;5.33;;
13483;SDS011;6814;57.786;12.080;2023-07-29T03:13:39;8.50;;;5.43;;
13483;SDS011;6814;57.786;12.080;2023-07-29T03:16:06;6.27;;;4.90;;
13483;SDS011;6814;57.786;12.080;2023-07-29T03:18:33;6.57;;;5.40;;
13483;SDS011;6814;57.786;12.080;2023-07-29T03:20:59;6.87;;;4.90;;
13483;SDS011;6814;57.786;12.080;2023-07-29T03:23:28;7.07;;;5.07;;
13483;SDS011;6814;57.786;12.080;2023-07-29T03:25:55;6.77;;;5.20;;
13483;SDS011;6814;57.786;12.080;2023-07-29T03:28:23;6.37;;;5.00;;
13483;SDS011;6814;57.786;12.080;2023-07-29T03:30:50;6.90;;;5.00;;
13483;SDS011;6814;57.786;12.080;2023-07-29T03:33:24;7.20;;;5.50;;
13483;SDS011;6814;57.786;12.080;2023-07-29T03:35:51;6.27;;;4.83;;
13483;SDS011;6814;57.786;12.080;2023-07-29T03:38:17;5.40;;;4.90;;
13483;SDS011;6814;57.786;12.080;2023-07-29T03:40:45;5.20;;;4.70;;
13483;SDS011;6814;57.786;12.080;2023-07-29T03:43:12;6.33;;;4.93;;
13483;SDS011;6814;57.786;12.080;2023-07-29T03:45:38;5.90;;;4.40;;
13483;SDS011;6814;57.786;12.080;2023-07-29T03:48:05;5.57;;;4.40;;
13483;SDS011;6814;57.786;12.080;2023-07-29T03:50:32;7.67;;;4.33;;
13483;SDS011;6814;57.786;12.080;2023-07-29T03:52:59;4.90;;;4.50;;
13483;SDS011;6814;57.786;12.080;2023-07-29T03:55:25;4.73;;;4.20;;
13483;SDS011;6814;57.786;12.080;2023-07-29T03:57:53;4.53;;;4.13;;
13483;SDS011;6814;57.786;12.080;2023-07-29T04:00:20;4.77;;;4.30;;
13483;SDS011;6814;57.786;12.080;2023-07-29T04:02:46;6.80;;;4.43;;
13483;SDS011;6814;57.786;12.080;2023-07-29T04:05:13;5.70;;;4.27;;
13483;SDS011;6814;57.786;12.080;2023-07-29T04:07:40;6.87;;;4.60;;
13483;SDS011;6814;57.786;12.080;2023-07-29T04:10:07;5.00;;;4.13;;
13483;SDS011;6814;57.786;12.080;2023-07-29T04:12:33;5.23;;;4.53;;
13483;SDS011;6814;57.786;12.080;2023-07-29T04:15:01;5.33;;;4.73;;
13483;SDS011;6814;57.786;12.080;2023-07-29T04:17:28;5.37;;;4.57;;
13483;SDS011;6814;57.786;12.080;2023-07-29T04:19:55;4.97;;;4.43;;
13483;SDS011;6814;57.786;12.080;2023-07-29T04:22:21;4.50;;;3.97;;
13483;SDS011;6814;57.786;12.080;2023-07-29T04:24:48;4.43;;;4.03;;
13483;SDS011;6814;57.786;12.080;2023-07-29T04:27:14;5.00;;;3.77;;
13483;SDS011;6814;57.786;12.080;2023-07-29T04:29:40;4.43;;;4.03;;
13483;SDS011;6814;57.786;12.080;2023-07-29T04:32:08;6.80;;;4.03;;
13483;SDS011;6814;57.786;12.080;2023-07-29T04:34:35;5.87;;;4.30;;
13483;SDS011;6814;57.786;12.080;2023-07-29T04:37:01;5.67;;;4.60;;
13483;SDS011;6814;57.786;12.080;2023-07-29T04:39:28;4.73;;;4.00;;
13483;SDS011;6814;57.786;12.080;2023-07-29T04:41:54;4.20;;;3.80;;
13483;SDS011;6814;57.786;12.080;2023-07-29T04:44:22;4.53;;;4.13;;
13483;SDS011;6814;57.786;12.080;2023-07-29T04:46:48;4.50;;;4.10;;
13483;SDS011;6814;57.786;12.080;2023-07-29T04:49:16;4.93;;;3.90;;
13483;SDS011;6814;57.786;12.080;2023-07-29T04:51:43;4.50;;;4.10;;
13483;SDS011;6814;57.786;12.080;2023-07-29T04:54:09;4.73;;;3.57;;
13483;SDS011;6814;57.786;12.080;2023-07-29T04:56:36;3.90;;;3.60;;
13483;SDS011;6814;57.786;12.080;2023-07-29T04:59:02;3.73;;;3.50;;
13483;SDS011;6814;57.786;12.080;2023-07-29T05:01:29;4.33;;;3.93;;
13483;SDS011;6814;57.786;12.080;2023-07-29T05:03:55;4.33;;;3.93;;
13483;SDS011;6814;57.786;12.080;2023-07-29T05:06:23;4.93;;;4.30;;
13483;SDS011;6814;57.786;12.080;2023-07-29T05:08:49;4.50;;;3.83;;
13483;SDS011;6814;57.786;12.080;2023-07-29T05:11:16;3.73;;;3.50;;
13483;SDS011;6814;57.786;12.080;2023-07-29T05:13:42;5.07;;;4.30;;
13483;SDS011;6814;57.786;12.080;2023-07-29T05:16:09;6.77;;;3.77;;
13483;SDS011;6814;57.786;12.080;2023-07-29T05:18:35;4.47;;;4.07;;
13483;SDS011;6814;57.786;12.080;2023-07-29T05:21:02;4.60;;;4.20;;
13483;SDS011;6814;57.786;12.080;2023-07-29T05:23:29;4.37;;;4.07;;
13483;SDS011;6814;57.786;12.080;2023-07-29T05:25:56;4.73;;;4.13;;
13483;SDS011;6814;57.786;12.080;2023-07-29T05:28:22;4.93;;;4.60;;
13483;SDS011;6814;57.786;12.080;2023-07-29T05:30:49;4.77;;;4.47;;
13483;SDS011;6814;57.786;12.080;2023-07-29T05:33:15;4.40;;;4.10;;
13483;SDS011;6814;57.786;12.080;2023-07-29T05:35:42;4.50;;;4.10;;
13483;SDS011;6814;57.786;12.080;2023-07-29T05:38:08;4.50;;;4.20;;
13483;SDS011;6814;57.786;12.080;2023-07-29T05:40:36;4.40;;;4.00;;
13483;SDS011;6814;57.786;12.080;2023-07-29T05:43:02;4.40;;;4.00;;
13483;SDS011;6814;57.786;12.080;2023-07-29T05:45:29;5.03;;;3.90;;
13483;SDS011;6814;57.786;12.080;2023-07-29T05:47:56;4.93;;;4.27;;
13483;SDS011;6814;57.786;12.080;2023-07-29T05:50:23;4.30;;;4.00;;
13483;SDS011;6814;57.786;12.080;2023-07-29T05:52:49;4.53;;;4.13;;
13483;SDS011;6814;57.786;12.080;2023-07-29T05:55:17;4.47;;;4.17;;
13483;SDS011;6814;57.786;12.080;2023-07-29T05:57:45;4.87;;;4.40;;
13483;SDS011;6814;57.786;12.080;2023-07-29T06:00:11;4.27;;;3.97;;
13483;SDS011;6814;57.786;12.080;2023-07-29T06:02:38;4.53;;;4.23;;
13483;SDS011;6814;57.786;12.080;2023-07-29T06:05:06;4.57;;;4.17;;
13483;SDS011;6814;57.786;12.080;2023-07-29T06:07:32;5.30;;;4.20;;
13483;SDS011;6814;57.786;12.080;2023-07-29T06:09:59;4.43;;;4.13;;
13483;SDS011;6814;57.786;12.080;2023-07-29T06:12:25;5.03;;;4.57;;
13483;SDS011;6814;57.786;12.080;2023-07-29T06:14:53;4.53;;;4.13;;
13483;SDS011;6814;57.786;12.080;2023-07-29T06:17:20;5.40;;;4.13;;
13483;SDS011;6814;57.786;12.080;2023-07-29T06:19:46;5.73;;;3.90;;
13483;SDS011;6814;57.786;12.080;2023-07-29T06:22:13;4.40;;;3.90;;
13483;SDS011;6814;57.786;12.080;2023-07-29T06:24:39;3.67;;;3.37;;
13483;SDS011;6814;57.786;12.080;2023-07-29T06:27:06;3.23;;;2.93;;
13483;SDS011;6814;57.786;12.080;2023-07-29T06:29:32;3.70;;;2.90;;
13483;SDS011;6814;57.786;12.080;2023-07-29T06:32:01;2.93;;;2.73;;
13483;SDS011;6814;57.786;12.080;2023-07-29T06:34:27;3.37;;;2.47;;
13483;SDS011;6814;57.786;12.080;2023-07-29T06:36:54;2.73;;;2.53;;
13483;SDS011;6814;57.786;12.080;2023-07-29T06:39:20;2.40;;;2.30;;
13483;SDS011;6814;57.786;12.080;2023-07-29T06:41:47;3.57;;;2.30;;
13483;SDS011;6814;57.786;12.080;2023-07-29T06:44:13;2.30;;;2.20;;
13483;SDS011;6814;57.786;12.080;2023-07-29T06:46:39;2.37;;;2.17;;
13483;SDS011;6814;57.786;12.080;2023-07-29T06:49:07;3.10;;;2.43;;
13483;SDS011;6814;57.786;12.080;2023-07-29T06:51:34;2.93;;;2.43;;
13483;SDS011;6814;57.786;12.080;2023-07-29T06:54:00;2.90;;;2.27;;
13483;SDS011;6814;57.786;12.080;2023-07-29T06:56:27;3.40;;;2.23;;
13483;SDS011;6814;57.786;12.080;2023-07-29T06:58:53;2.50;;;2.23;;
13483;SDS011;6814;57.786;12.080;2023-07-29T07:01:20;2.83;;;2.27;;
13483;SDS011;6814;57.786;12.080;2023-07-29T07:03:46;2.33;;;2.13;;
13483;SDS011;6814;57.786;12.080;2023-07-29T07:06:14;2.40;;;2.30;;
13483;SDS011;6814;57.786;12.080;2023-07-29T07:08:41;4.00;;;2.57;;
13483;SDS011;6814;57.786;12.080;2023-07-29T07:11:08;2.40;;;2.00;;
13483;SDS011;6814;57.786;12.080;2023-07-29T07:13:35;2.53;;;2.30;;
13483;SDS011;6814;57.786;12.080;2023-07-29T07:16:01;2.57;;;2.10;;
13483;SDS011;6814;57.786;12.080;2023-07-29T07:18:32;2.40;;;2.20;;
13483;SDS011;6814;57.786;12.080;2023-07-29T07:20:58;2.40;;;2.20;;
13483;SDS011;6814;57.786;12.080;2023-07-29T07:23:26;2.50;;;2.30;;
13483;SDS011;6814;57.786;12.080;2023-07-29T07:25:53;2.90;;;2.33;;
13483;SDS011;6814;57.786;12.080;2023-07-29T07:28:19;3.33;;;2.30;;
13483;SDS011;6814;57.786;12.080;2023-07-29T07:30:46;2.50;;;2.30;;
13483;SDS011;6814;57.786;12.080;2023-07-29T07:33:12;2.37;;;2.20;;
13483;SDS011;6814;57.786;12.080;2023-07-29T07:35:39;2.20;;;2.10;;
13483;SDS011;6814;57.786;12.080;2023-07-29T07:38:07;3.07;;;2.30;;
13483;SDS011;6814;57.786;12.080;2023-07-29T07:40:36;2.00;;;1.90;;
13483;SDS011;6814;57.786;12.080;2023-07-29T07:43:02;2.23;;;2.07;;
13483;SDS011;6814;57.786;12.080;2023-07-29T07:45:29;3.03;;;2.40;;
13483;SDS011;6814;57.786;12.080;2023-07-29T07:47:55;2.73;;;2.30;;
13483;SDS011;6814;57.786;12.080;2023-07-29T07:50:22;2.23;;;2.07;;
13483;SDS011;6814;57.786;12.080;2023-07-29T07:52:49;2.87;;;2.00;;
13483;SDS011;6814;57.786;12.080;2023-07-29T07:55:15;2.27;;;2.10;;
13483;SDS011;6814;57.786;12.080;2023-07-29T07:57:43;2.37;;;2.27;;
13483;SDS011;6814;57.786;12.080;2023-07-29T08:00:10;2.60;;;2.17;;
13483;SDS011;6814;57.786;12.080;2023-07-29T08:02:36;2.17;;;1.97;;
13483;SDS011;6814;57.786;12.080;2023-07-29T08:05:03;3.17;;;2.43;;
13483;SDS011;6814;57.786;12.080;2023-07-29T08:07:30;2.30;;;2.10;;
13483;SDS011;6814;57.786;12.080;2023-07-29T08:09:57;2.80;;;2.60;;
13483;SDS011;6814;57.786;12.080;2023-07-29T08:12:23;3.13;;;1.93;;
13483;SDS011;6814;57.786;12.080;2023-07-29T08:14:51;2.23;;;2.10;;
13483;SDS011;6814;57.786;12.080;2023-07-29T08:17:17;2.33;;;2.13;;
13483;SDS011;6814;57.786;12.080;2023-07-29T08:19:44;3.63;;;2.23;;
13483;SDS011;6814;57.786;12.080;2023-07-29T08:22:10;2.40;;;2.20;;
13483;SDS011;6814;57.786;12.080;2023-07-29T08:24:36;3.67;;;2.33;;
13483;SDS011;6814;57.786;12.080;2023-07-29T08:27:03;2.10;;;2.00;;
13483;SDS011;6814;57.786;12.080;2023-07-29T08:29:29;2.67;;;1.87;;
13483;SDS011;6814;57.786;12.080;2023-07-29T08:31:57;2.77;;;2.20;;
13483;SDS011;6814;57.786;12.080;2023-07-29T08:34:24;2.47;;;2.27;;
13483;SDS011;6814;57.786;12.080;2023-07-29T08:36:50;2.80;;;2.00;;
13483;SDS011;6814;57.786;12.080;2023-07-29T08:39:17;2.40;;;2.20;;
13483;SDS011;6814;57.786;12.080;2023-07-29T08:41:46;2.60;;;2.40;;
13483;SDS011;6814;57.786;12.080;2023-07-29T08:44:17;2.97;;;2.33;;
13483;SDS011;6814;57.786;12.080;2023-07-29T08:46:44;3.20;;;2.10;;
13483;SDS011;6814;57.786;12.080;2023-07-29T08:49:12;2.23;;;2.13;;
13483;SDS011;6814;57.786;12.080;2023-07-29T08:51:41;2.20;;;2.00;;
13483;SDS011;6814;57.786;12.080;2023-07-29T08:54:08;3.23;;;2.20;;
13483;SDS011;6814;57.786;12.080;2023-07-29T08:56:35;2.60;;;2.40;;
13483;SDS011;6814;57.786;12.080;2023-07-29T08:59:02;8.03;;;2.97;;
13483;SDS011;6814;57.786;12.080;2023-07-29T09:01:30;2.50;;;2.30;;
13483;SDS011;6814;57.786;12.080;2023-07-29T09:03:57;2.90;;;2.23;;
13483;SDS011;6814;57.786;12.080;2023-07-29T09:06:25;2.60;;;2.40;;
13483;SDS011;6814;57.786;12.080;2023-07-29T09:08:52;3.43;;;2.30;;
13483;SDS011;6814;57.786;12.080;2023-07-29T09:11:21;3.33;;;2.40;;
13483;SDS011;6814;57.786;12.080;2023-07-29T09:13:48;2.70;;;2.50;;
13483;SDS011;6814;57.786;12.080;2023-07-29T09:16:15;2.80;;;2.60;;
13483;SDS011;6814;57.786;12.080;2023-07-29T09:18:42;2.60;;;2.40;;
13483;SDS011;6814;57.786;12.080;2023-07-29T09:21:08;3.10;;;2.60;;
13483;SDS011;6814;57.786;12.080;2023-07-29T09:23:40;4.37;;;2.40;;
13483;SDS011;6814;57.786;12.080;2023-07-29T09:26:07;5.27;;;2.70;;
13483;SDS011;6814;57.786;12.080;2023-07-29T09:28:34;2.90;;;2.70;;
13483;SDS011;6814;57.786;12.080;2023-07-29T09:31:04;5.23;;;2.60;;
13483;SDS011;6814;57.786;12.080;2023-07-29T09:33:35;3.20;;;2.90;;
13483;SDS011;6814;57.786;12.080;2023-07-29T09:36:03;4.17;;;2.97;;
13483;SDS011;6814;57.786;12.080;2023-07-29T09:38:29;3.00;;;2.80;;
13483;SDS011;6814;57.786;12.080;2023-07-29T09:40:58;2.97;;;2.67;;
13483;SDS011;6814;57.786;12.080;2023-07-29T09:43:25;4.37;;;3.27;;
13483;SDS011;6814;57.786;12.080;2023-07-29T09:46:04;2.77;;;2.50;;
13483;SDS011;6814;57.786;12.080;2023-07-29T09:48:37;4.00;;;2.87;;
13483;SDS011;6814;57.786;12.080;2023-07-29T09:51:12;4.33;;;3.10;;
13483;SDS011;6814;57.786;12.080;2023-07-29T09:53:39;3.53;;;2.60;;
13483;SDS011;6814;57.786;12.080;2023-07-29T09:56:09;3.20;;;2.70;;
13483;SDS011;6814;57.786;12.080;2023-07-29T09:58:36;4.43;;;2.83;;
13483;SDS011;6814;57.786;12.080;2023-07-29T10:01:03;3.20;;;2.90;;
13483;SDS011;6814;57.786;12.080;2023-07-29T10:03:44;3.27;;;2.97;;
13483;SDS011;6814;57.786;12.080;2023-07-29T10:06:17;4.17;;;3.07;;
13483;SDS011;6814;57.786;12.080;2023-07-29T10:08:49;3.13;;;2.90;;
13483;SDS011;6814;57.786;12.080;2023-07-29T10:11:21;3.53;;;3.23;;
13483;SDS011;6814;57.786;12.080;2023-07-29T10:13:57;3.43;;;3.13;;
13483;SDS011;6814;57.786;12.080;2023-07-29T10:16:24;3.20;;;2.90;;
13483;SDS011;6814;57.786;12.080;2023-07-29T10:18:57;3.60;;;3.30;;
13483;SDS011;6814;57.786;12.080;2023-07-29T10:21:33;3.10;;;2.80;;
13483;SDS011;6814;57.786;12.080;2023-07-29T10:24:06;3.10;;;2.80;;
13483;SDS011;6814;57.786;12.080;2023-07-29T10:26:55;2.87;;;2.67;;
13483;SDS011;6814;57.786;12.080;2023-07-29T10:29:29;2.93;;;2.70;;
13483;SDS011;6814;57.786;12.080;2023-07-29T10:31:57;2.67;;;2.47;;
13483;SDS011;6814;57.786;12.080;2023-07-29T10:34:23;3.27;;;2.97;;
13483;SDS011;6814;57.786;12.080;2023-07-29T10:36:50;3.60;;;2.53;;
13483;SDS011;6814;57.786;12.080;2023-07-29T10:39:17;3.60;;;2.40;;
13483;SDS011;6814;57.786;12.080;2023-07-29T10:41:58;2.50;;;2.30;;
13483;SDS011;6814;57.786;12.080;2023-07-29T10:47:19;2.70;;;2.50;;
13483;SDS011;6814;57.786;12.080;2023-07-29T10:49:47;2.90;;;2.60;;
13483;SDS011;6814;57.786;12.080;2023-07-29T10:52:14;3.80;;;3.50;;
13483;SDS011;6814;57.786;12.080;2023-07-29T10:54:42;3.20;;;2.90;;
13483;SDS011;6814;57.786;12.080;2023-07-29T10:57:11;2.70;;;2.50;;
13483;SDS011;6814;57.786;12.080;2023-07-29T10:59:38;3.57;;;3.27;;
13483;SDS011;6814;57.786;12.080;2023-07-29T11:02:11;3.40;;;3.20;;
13483;SDS011;6814;57.786;12.080;2023-07-29T11:04:45;3.23;;;2.93;;
13483;SDS011;6814;57.786;12.080;2023-07-29T11:07:19;3.07;;;2.80;;
13483;SDS011;6814;57.786;12.080;2023-07-29T11:09:52;3.27;;;2.80;;
13483;SDS011;6814;57.786;12.080;2023-07-29T11:15:12;2.33;;;2.23;;
13483;SDS011;6814;57.786;12.080;2023-07-29T11:17:39;2.13;;;1.93;;
13483;SDS011;6814;57.786;12.080;2023-07-29T11:20:06;3.23;;;2.30;;
13483;SDS011;6814;57.786;12.080;2023-07-29T11:22:33;2.97;;;2.77;;
13483;SDS011;6814;57.786;12.080;2023-07-29T11:25:00;3.30;;;3.10;;
13483;SDS011;6814;57.786;12.080;2023-07-29T11:27:27;6.03;;;3.70;;
13483;SDS011;6814;57.786;12.080;2023-07-29T11:29:56;5.37;;;3.77;;
13483;SDS011;6814;57.786;12.080;2023-07-29T11:32:24;5.77;;;3.70;;
13483;SDS011;6814;57.786;12.080;2023-07-29T11:34:51;4.80;;;3.73;;
13483;SDS011;6814;57.786;12.080;2023-07-29T11:37:18;3.53;;;3.23;;
13483;SDS011;6814;57.786;12.080;2023-07-29T11:39:46;3.33;;;3.03;;
13483;SDS011;6814;57.786;12.080;2023-07-29T11:42:12;3.67;;;3.37;;
13483;SDS011;6814;57.786;12.080;2023-07-29T11:44:39;4.23;;;3.53;;
13483;SDS011;6814;57.786;12.080;2023-07-29T11:47:06;4.17;;;3.33;;
13483;SDS011;6814;57.786;12.080;2023-07-29T11:49:34;3.77;;;3.47;;
13483;SDS011;6814;57.786;12.080;2023-07-29T11:52:01;3.67;;;3.20;;
13483;SDS011;6814;57.786;12.080;2023-07-29T11:54:28;3.40;;;3.13;;
13483;SDS011;6814;57.786;12.080;2023-07-29T11:56:55;2.90;;;2.70;;
13483;SDS011;6814;57.786;12.080;2023-07-29T11:59:21;4.20;;;2.90;;
13483;SDS011;6814;57.786;12.080;2023-07-29T12:01:48;2.97;;;2.77;;
13483;SDS011;6814;57.786;12.080;2023-07-29T12:04:14;2.43;;;2.20;;
13483;SDS011;6814;57.786;12.080;2023-07-29T12:06:42;2.40;;;2.20;;
13483;SDS011;6814;57.786;12.080;2023-07-29T12:09:09;2.40;;;2.20;;
13483;SDS011;6814;57.786;12.080;2023-07-29T12:11:35;2.73;;;2.53;;
13483;SDS011;6814;57.786;12.080;2023-07-29T12:14:02;2.27;;;2.17;;
13483;SDS011;6814;57.786;12.080;2023-07-29T12:16:28;2.30;;;2.10;;
13483;SDS011;6814;57.786;12.080;2023-07-29T12:19:00;2.47;;;2.27;;
13483;SDS011;6814;57.786;12.080;2023-07-29T12:21:26;2.37;;;2.27;;
13483;SDS011;6814;57.786;12.080;2023-07-29T12:23:54;1.93;;;1.83;;
13483;SDS011;6814;57.786;12.080;2023-07-29T12:26:20;2.30;;;1.77;;
13483;SDS011;6814;57.786;12.080;2023-07-29T12:28:47;1.60;;;1.50;;
13483;SDS011;6814;57.786;12.080;2023-07-29T12:31:14;1.77;;;1.57;;
13483;SDS011;6814;57.786;12.080;2023-07-29T12:33:40;2.17;;;1.63;;
13483;SDS011;6814;57.786;12.080;2023-07-29T12:36:07;1.73;;;1.50;;
13483;SDS011;6814;57.786;12.080;2023-07-29T12:38:35;1.20;;;1.20;;
13483;SDS011;6814;57.786;12.080;2023-07-29T12:41:03;1.37;;;1.27;;
13483;SDS011;6814;57.786;12.080;2023-07-29T12:43:30;1.07;;;1.00;;
13483;SDS011;6814;57.786;12.080;2023-07-29T12:45:57;0.90;;;0.90;;
13483;SDS011;6814;57.786;12.080;2023-07-29T12:48:24;1.47;;;0.90;;
13483;SDS011;6814;57.786;12.080;2023-07-29T12:50:50;1.03;;;1.03;;
13483;SDS011;6814;57.786;12.080;2023-07-29T12:53:17;0.90;;;0.90;;
13483;SDS011;6814;57.786;12.080;2023-07-29T12:55:43;1.00;;;1.00;;
13483;SDS011;6814;57.786;12.080;2023-07-29T12:58:11;1.23;;;1.00;;
13483;SDS011;6814;57.786;12.080;2023-07-29T13:00:38;1.30;;;1.07;;
13483;SDS011;6814;57.786;12.080;2023-07-29T13:03:04;0.73;;;0.73;;
13483;SDS011;6814;57.786;12.080;2023-07-29T13:05:31;1.00;;;1.00;;
13483;SDS011;6814;57.786;12.080;2023-07-29T13:07:57;0.90;;;0.90;;
13483;SDS011;6814;57.786;12.080;2023-07-29T13:10:24;0.93;;;0.93;;
13483;SDS011;6814;57.786;12.080;2023-07-29T13:12:57;1.13;;;1.03;;
13483;SDS011;6814;57.786;12.080;2023-07-29T13:15:25;1.00;;;1.00;;
13483;SDS011;6814;57.786;12.080;2023-07-29T13:17:52;0.90;;;0.90;;
13483;SDS011;6814;57.786;12.080;2023-07-29T13:20:18;1.07;;;1.07;;
13483;SDS011;6814;57.786;12.080;2023-07-29T13:22:45;1.20;;;1.20;;
13483;SDS011;6814;57.786;12.080;2023-07-29T13:25:13;1.10;;;1.10;;
13483;SDS011;6814;57.786;12.080;2023-07-29T13:27:40;1.10;;;1.10;;
13483;SDS011;6814;57.786;12.080;2023-07-29T13:30:07;0.83;;;0.83;;
13483;SDS011;6814;57.786;12.080;2023-07-29T13:32:36;0.90;;;0.90;;
13483;SDS011;6814;57.786;12.080;2023-07-29T13:35:02;1.00;;;1.00;;
13483;SDS011;6814;57.786;12.080;2023-07-29T13:37:29;1.10;;;1.10;;
13483;SDS011;6814;57.786;12.080;2023-07-29T13:39:55;1.20;;;1.10;;
13483;SDS011;6814;57.786;12.080;2023-07-29T13:42:22;1.17;;;0.93;;
13483;SDS011;6814;57.786;12.080;2023-07-29T13:44:48;1.00;;;1.00;;
13483;SDS011;6814;57.786;12.080;2023-07-29T13:47:15;1.00;;;1.00;;
13483;SDS011;6814;57.786;12.080;2023-07-29T13:49:42;1.13;;;1.13;;
13483;SDS011;6814;57.786;12.080;2023-07-29T13:52:09;1.20;;;1.20;;
13483;SDS011;6814;57.786;12.080;2023-07-29T13:54:35;1.20;;;1.20;;
13483;SDS011;6814;57.786;12.080;2023-07-29T13:57:04;1.10;;;1.10;;
13483;SDS011;6814;57.786;12.080;2023-07-29T13:59:31;1.30;;;1.27;;
13483;SDS011;6814;57.786;12.080;2023-07-29T14:01:58;1.50;;;1.50;;
13483;SDS011;6814;57.786;12.080;2023-07-29T14:04:24;1.40;;;1.40;;
13483;SDS011;6814;57.786;12.080;2023-07-29T14:06:52;1.67;;;1.20;;
13483;SDS011;6814;57.786;12.080;2023-07-29T14:09:18;1.63;;;1.50;;
13483;SDS011;6814;57.786;12.080;2023-07-29T14:11:45;1.57;;;1.40;;
13483;SDS011;6814;57.786;12.080;2023-07-29T14:14:14;1.20;;;1.20;;
13483;SDS011;6814;57.786;12.080;2023-07-29T14:16:41;1.27;;;1.20;;
13483;SDS011;6814;57.786;12.080;2023-07-29T14:19:07;1.00;;;1.00;;
13483;SDS011;6814;57.786;12.080;2023-07-29T14:21:34;1.27;;;1.27;;
13483;SDS011;6814;57.786;12.080;2023-07-29T14:24:01;1.23;;;1.23;;
13483;SDS011;6814;57.786;12.080;2023-07-29T14:26:28;1.57;;;1.40;;
13483;SDS011;6814;57.786;12.080;2023-07-29T14:28:54;1.20;;;1.10;;
13483;SDS011;6814;57.786;12.080;2023-07-29T14:31:21;1.30;;;1.20;;
13483;SDS011;6814;57.786;12.080;2023-07-29T14:33:47;1.83;;;1.60;;
13483;SDS011;6814;57.786;12.080;2023-07-29T14:36:15;1.30;;;1.30;;
13483;SDS011;6814;57.786;12.080;2023-07-29T14:38:41;1.37;;;1.30;;
13483;SDS011;6814;57.786;12.080;2023-07-29T14:41:09;1.27;;;1.27;;
13483;SDS011;6814;57.786;12.080;2023-07-29T14:43:36;1.57;;;1.47;;
13483;SDS011;6814;57.786;12.080;2023-07-29T14:46:03;1.30;;;1.30;;
13483;SDS011;6814;57.786;12.080;2023-07-29T14:48:30;1.20;;;1.20;;
13483;SDS011;6814;57.786;12.080;2023-07-29T14:50:56;1.67;;;1.30;;
13483;SDS011;6814;57.786;12.080;2023-07-29T14:53:23;1.10;;;1.10;;
13483;SDS011;6814;57.786;12.080;2023-07-29T14:55:50;1.10;;;1.00;;